New Frontier — 3FEB3 — position and weather

sailwx.info

Track history (hours):
 
Tides and Currents Weather Stations Pressure Air Temp Water Temp Dewpoint Dewpoint Depression Visibility Wind Speed Wind Dir Waves Ship Positions

New Frontier

Last reported at 2018-Apr-23 20:10 UTC. Time now 2018-Apr-24 02:41 UTC.
Position N 41°14' E 139°04'.

Length 176 m; draft 6.1 m.

Type: Cargo ship. MMSI: 351004000.

Date/timePositionNaut miles runAvg speedWind from/ knotsBaromVisibWave heightAir tempDewpointWater temp
2018-Apr-23 20:10N 41°14' E 139°04'312.0
2018-Apr-23 19:55N 41°14' E 139°08'4611.9
2018-Apr-23 16:05N 41°17' E 140°09'112.0
2018-Apr-23 16:00N 41°18' E 140°10'612.3
2018-Apr-23 15:30N 41°21' E 140°16'610.9
2018-Apr-23 15:00N 41°24' E 140°23'510.5
2018-Apr-23 14:30N 41°27' E 140°28'611.1
2018-Apr-23 14:00N 41°30' E 140°35'611.7
2018-Apr-23 13:30N 41°33' E 140°41'611.3
2018-Apr-23 13:00N 41°36' E 140°47'5 9.6
2018-Apr-23 12:30N 41°38' E 140°53'5 9.4
2018-Apr-23 12:00N 41°38' E 140°59'5 9.1
2018-Apr-23 11:30N 41°38' E 141°06'611.2
2018-Apr-23 11:00N 41°39' E 141°13'612.3
2018-Apr-23 10:29N 41°40' E 141°22'510.5
2018-Apr-23 10:00N 41°43' E 141°27'611.9
2018-Apr-23 09:30N 41°49' E 141°27'612.2
2018-Apr-23 09:00N 41°55' E 141°28'612.2
2018-Apr-23 08:29N 42°01' E 141°28'  
Track history (hours):
 
Tides and Currents Weather Stations Pressure Air Temp Water Temp Dewpoint Dewpoint Depression Visibility Wind Speed Wind Dir Waves Ship Positions

New Frontier

Last reported at 2018-Apr-23 20:10 UTC. Time now 2018-Apr-24 02:41 UTC.
Position N 41°14' E 139°04'.

Length 176 m; draft 6.1 m.

Type: Cargo ship. MMSI: 351004000.

Date/timePositionNaut miles runAvg speedWind from/ knotsBaromVisibWave heightAir tempDewpointWater temp
2018-Apr-23 20:10N 41°14' E 139°04'312.0
2018-Apr-23 19:55N 41°14' E 139°08'4611.9
2018-Apr-23 16:05N 41°17' E 140°09'112.0
2018-Apr-23 16:00N 41°18' E 140°10'612.3
2018-Apr-23 15:30N 41°21' E 140°16'610.9
2018-Apr-23 15:00N 41°24' E 140°23'510.5
2018-Apr-23 14:30N 41°27' E 140°28'611.1
2018-Apr-23 14:00N 41°30' E 140°35'611.7
2018-Apr-23 13:30N 41°33' E 140°41'611.3
2018-Apr-23 13:00N 41°36' E 140°47'5 9.6
2018-Apr-23 12:30N 41°38' E 140°53'5 9.4
2018-Apr-23 12:00N 41°38' E 140°59'5 9.1
2018-Apr-23 11:30N 41°38' E 141°06'611.2
2018-Apr-23 11:00N 41°39' E 141°13'612.3
2018-Apr-23 10:29N 41°40' E 141°22'510.5
2018-Apr-23 10:00N 41°43' E 141°27'611.9
2018-Apr-23 09:30N 41°49' E 141°27'612.2
2018-Apr-23 09:00N 41°55' E 141°28'612.2
2018-Apr-23 08:29N 42°01' E 141°28'  

Dump ship's entire track history